Time;durP1;ratioP1;P1;durP2;ratioP2;P2;SDS_P1;SDS_P2;PMS_P1;PMS_P2;Temp;Humidity;BMP_temperature;BMP_pressure;BME280_temperature;BME280_humidity;BME280_pressure;Samples;Min_cycle;Max_cycle;Signal;HPM_P1;HPM_P2
2021/01/15 00:01:42;;;;;;;15.52;9.85;;;2.10;99.90;;;;;;4195619;28;20036;-68
2021/01/15 00:03:43;;;;;;;19.67;10.95;;;2.10;99.90;;;;;;4193806;28;20583;-68
2021/01/15 00:05:44;;;;;;;21.55;10.80;;;2.10;99.90;;;;;;4197024;28;20032;-68
2021/01/15 00:07:45;;;;;;;16.15;9.57;;;2.10;99.90;;;;;;4195366;28;20457;-68
2021/01/15 00:09:45;;;;;;;15.63;9.90;;;2.10;99.90;;;;;;4198713;28;20048;-69
2021/01/15 00:11:46;;;;;;;14.35;9.68;;;2.10;99.90;;;;;;4183533;28;20101;-69
2021/01/15 00:13:46;;;;;;;14.32;9.18;;;2.10;99.90;;;;;;4194319;28;20039;-69
2021/01/15 00:15:47;;;;;;;20.27;10.43;;;2.10;99.90;;;;;;4201715;28;20400;-68
2021/01/15 00:17:47;;;;;;;18.20;10.32;;;2.10;99.90;;;;;;4193266;28;20037;-68
2021/01/15 00:19:49;;;;;;;18.00;9.10;;;2.10;99.90;;;;;;4193873;28;20388;-68
2021/01/15 00:21:50;;;;;;;16.60;10.23;;;2.10;99.90;;;;;;4191801;28;20037;-70
2021/01/15 00:23:53;;;;;;;14.23;8.70;;;2.10;99.90;;;;;;4193498;28;20472;-69
2021/01/15 00:25:54;;;;;;;15.85;9.30;;;2.10;99.90;;;;;;4198708;28;20039;-69
2021/01/15 00:27:55;;;;;;;15.13;9.25;;;2.10;99.90;;;;;;4193045;28;20403;-68
2021/01/15 00:29:55;;;;;;;15.15;9.10;;;2.10;99.90;;;;;;4199731;28;20021;-69
2021/01/15 00:31:56;;;;;;;16.75;9.18;;;2.10;99.90;;;;;;4198552;28;20035;-68
2021/01/15 00:33:57;;;;;;;15.73;8.98;;;2.10;99.90;;;;;;4201583;28;20476;-68
2021/01/15 00:35:57;;;;;;;15.75;9.63;;;2.10;99.90;;;;;;4197423;28;20116;-69
2021/01/15 00:37:58;;;;;;;14.63;9.20;;;2.10;99.90;;;;;;4195945;28;20074;-68
2021/01/15 00:40:00;;;;;;;13.52;8.55;;;2.10;99.90;;;;;;4202307;28;20066;-68
2021/01/15 00:42:01;;;;;;;13.52;8.05;;;2.10;99.90;;;;;;4191613;28;20090;-69
2021/01/15 00:44:03;;;;;;;13.07;8.38;;;2.10;99.90;;;;;;4194478;28;20442;-68
2021/01/15 00:46:07;;;;;;;14.02;8.65;;;2.10;99.90;;;;;;4195763;28;20137;-68
2021/01/15 00:48:08;;;;;;;16.08;8.70;;;2.10;99.90;;;;;;4197342;28;20036;-68
2021/01/15 00:50:10;;;;;;;13.80;7.75;;;2.10;99.90;;;;;;4197193;28;20043;-69
2021/01/15 00:52:10;;;;;;;16.02;8.88;;;2.00;99.90;;;;;;4199238;28;20120;-69
2021/01/15 00:54:11;;;;;;;14.68;8.75;;;2.00;99.90;;;;;;4201082;28;20464;-68
2021/01/15 00:56:16;;;;;;;14.32;8.40;;;2.00;99.90;;;;;;4185095;28;20380;-68
2021/01/15 00:58:17;;;;;;;15.50;8.43;;;1.90;99.90;;;;;;4192931;28;20032;-69
2021/01/15 01:00:18;;;;;;;12.43;7.65;;;1.90;99.90;;;;;;4201148;28;20063;-68
2021/01/15 01:02:18;;;;;;;14.52;8.30;;;1.90;99.90;;;;;;4194231;28;20036;-68
2021/01/15 01:04:19;;;;;;;14.77;8.23;;;1.90;99.90;;;;;;4201324;28;20136;-68
2021/01/15 01:06:22;;;;;;;12.50;7.43;;;1.80;99.90;;;;;;4195583;28;20056;-68
2021/01/15 01:08:22;;;;;;;;;;;1.80;99.90;;;;;;4196666;28;20170;-68
2021/01/15 01:10:23;;;;;;;12.82;7.65;;;1.80;99.90;;;;;;4199597;28;19916;-68
2021/01/15 01:12:23;;;;;;;15.60;7.90;;;1.80;99.90;;;;;;4190690;28;20039;-68
2021/01/15 01:14:24;;;;;;;13.43;7.88;;;1.80;99.90;;;;;;4221158;27;20487;-68
2021/01/15 01:16:25;;;;;;;12.02;7.05;;;1.80;99.90;;;;;;4199768;28;20397;-68
2021/01/15 01:18:26;;;;;;;14.15;8.10;;;1.80;99.90;;;;;;4197589;28;20032;-68
2021/01/15 01:20:26;;;;;;;11.98;6.93;;;1.80;99.90;;;;;;4190642;28;20055;-68
2021/01/15 01:22:27;;;;;;;13.27;7.75;;;1.70;99.90;;;;;;4227926;27;20115;-68
2021/01/15 01:24:28;;;;;;;11.40;6.93;;;1.70;99.90;;;;;;4202375;28;20086;-68
2021/01/15 01:26:28;;;;;;;13.93;7.65;;;1.70;99.90;;;;;;4193424;28;20450;-68
2021/01/15 01:28:29;;;;;;;13.40;7.80;;;1.80;99.90;;;;;;4192765;28;20037;-68
2021/01/15 01:30:29;;;;;;;15.45;7.22;;;1.80;99.90;;;;;;4204128;28;20127;-68
2021/01/15 01:32:30;;;;;;;11.20;7.10;;;1.80;99.90;;;;;;4174842;28;20045;-68
2021/01/15 01:34:30;;;;;;;11.85;7.00;;;1.80;99.90;;;;;;4191338;28;20033;-68
2021/01/15 01:36:31;;;;;;;10.93;6.78;;;1.80;99.90;;;;;;4234587;27;20031;-69
2021/01/15 01:38:32;;;;;;;12.35;7.07;;;1.80;99.90;;;;;;4193029;28;20044;-68
2021/01/15 01:40:32;;;;;;;13.40;7.65;;;1.80;99.90;;;;;;4201583;28;20389;-68
2021/01/15 01:42:33;;;;;;;15.85;8.18;;;1.80;99.90;;;;;;4183397;28;20401;-68
2021/01/15 01:44:33;;;;;;;10.23;7.25;;;1.80;99.90;;;;;;4196229;28;20449;-68
2021/01/15 01:46:34;;;;;;;11.57;7.13;;;1.90;99.90;;;;;;4200625;28;20028;-68
2021/01/15 01:48:35;;;;;;;13.48;7.93;;;1.90;99.90;;;;;;4202781;28;20124;-68
2021/01/15 01:50:41;;;;;;;12.50;7.23;;;1.90;99.90;;;;;;4192597;28;20047;-68
2021/01/15 01:52:42;;;;;;;11.50;6.85;;;1.90;99.90;;;;;;4166886;28;20248;-68
2021/01/15 01:54:46;;;;;;;12.88;7.18;;;2.00;99.90;;;;;;4183036;28;20028;-68
2021/01/15 01:56:47;;;;;;;12.23;6.75;;;2.00;99.90;;;;;;4179865;28;20123;-68
2021/01/15 01:58:49;;;;;;;11.23;6.53;;;2.00;99.90;;;;;;4190090;28;20043;-69
2021/01/15 02:00:58;;;;;;;13.98;7.70;;;2.00;99.90;;;;;;4185031;28;20496;-68
2021/01/15 02:02:59;;;;;;;11.90;6.88;;;2.10;99.90;;;;;;4173664;28;20363;-68
2021/01/15 02:05:00;;;;;;;14.15;7.22;;;2.10;99.90;;;;;;4177029;28;20032;-68
2021/01/15 02:07:00;;;;;;;12.45;7.13;;;2.10;99.90;;;;;;4177399;28;20485;-69
2021/01/15 02:09:08;;;;;;;12.60;7.03;;;2.10;99.90;;;;;;4176653;28;20041;-69
2021/01/15 02:11:27;;;;;;;11.73;6.63;;;2.10;99.90;;;;;;4184246;28;20509;-68
2021/01/15 02:14:05;;;;;;;11.95;6.93;;;2.20;99.90;;;;;;4179459;28;20120;-68
2021/01/15 02:16:24;;;;;;;9.48;6.47;;;2.20;99.90;;;;;;4199544;28;20093;-68
2021/01/15 02:18:36;;;;;;;13.50;7.32;;;2.30;99.90;;;;;;4180199;28;20064;-69
2021/01/15 02:20:45;;;;;;;10.77;7.05;;;2.20;99.90;;;;;;4175190;28;21556;-68
2021/01/15 02:23:04;;;;;;;11.63;7.38;;;2.30;99.90;;;;;;4179994;28;20085;-68
2021/01/15 02:25:20;;;;;;;13.85;6.63;;;2.30;99.90;;;;;;4183589;28;20024;-68
2021/01/15 02:27:42;;;;;;;12.45;6.93;;;2.30;99.90;;;;;;4189200;28;20037;-68
2021/01/15 02:30:22;;;;;;;10.65;6.72;;;2.30;99.90;;;;;;4173908;28;20337;-69
2021/01/15 02:32:55;;;;;;;11.32;6.82;;;2.30;99.90;;;;;;4169969;28;20044;-69
2021/01/15 02:35:01;;;;;;;;;;;2.30;99.90;;;;;;4197789;28;20519;-68
2021/01/15 02:37:17;;;;;;;11.57;5.95;;;2.30;99.90;;;;;;4184545;28;19928;-68
2021/01/15 02:39:49;;;;;;;11.57;6.18;;;2.40;99.90;;;;;;4174635;28;20032;-68
2021/01/15 02:41:50;;;;;;;11.15;7.10;;;2.40;99.90;;;;;;4164461;28;20489;-68
2021/01/15 02:43:57;;;;;;;10.13;6.35;;;2.40;99.90;;;;;;4180144;28;20036;-69
2021/01/15 02:46:00;;;;;;;12.57;7.05;;;2.40;99.90;;;;;;4184361;28;20525;-68
2021/01/15 02:48:04;;;;;;;11.38;7.13;;;2.40;99.90;;;;;;4203114;28;20067;-69
2021/01/15 02:50:09;;;;;;;11.55;7.68;;;2.40;99.90;;;;;;4173571;28;20396;-68
2021/01/15 02:52:10;;;;;;;14.15;7.68;;;2.40;99.90;;;;;;4183733;28;20036;-68
2021/01/15 02:54:11;;;;;;;12.25;7.65;;;2.50;99.90;;;;;;4172752;28;20044;-68
2021/01/15 02:56:13;;;;;;;11.57;7.57;;;2.40;99.90;;;;;;4180380;28;20128;-68
2021/01/15 02:58:14;;;;;;;;;;;2.40;99.90;;;;;;4185460;28;20049;-68
2021/01/15 03:00:17;;;;;;;13.02;7.93;;;2.40;99.90;;;;;;4177883;28;20519;-69
2021/01/15 03:02:29;;;;;;;10.80;6.53;;;2.40;99.90;;;;;;4183510;28;20101;-68
2021/01/15 03:04:33;;;;;;;15.93;7.90;;;2.40;99.90;;;;;;4187212;28;20042;-68
2021/01/15 03:06:51;;;;;;;13.90;8.10;;;2.50;99.90;;;;;;4203190;28;20515;-68
2021/01/15 03:08:58;;;;;;;13.60;7.82;;;2.50;99.90;;;;;;4218083;28;20047;-69
2021/01/15 03:11:01;;;;;;;12.98;7.68;;;2.50;99.90;;;;;;4194984;28;20488;-68
2021/01/15 03:13:02;;;;;;;;;;;2.50;99.90;;;;;;4203337;28;20432;-68
2021/01/15 03:15:03;;;;;;;13.50;8.18;;;2.50;99.90;;;;;;4193661;28;19956;-68
2021/01/15 03:17:08;;;;;;;13.15;8.05;;;2.50;99.90;;;;;;4196968;28;20047;-68
2021/01/15 03:19:09;;;;;;;15.73;7.88;;;2.50;99.90;;;;;;4187971;28;20025;-68
2021/01/15 03:21:10;;;;;;;13.50;8.00;;;2.50;99.90;;;;;;4189784;28;20036;-68
2021/01/15 03:23:11;;;;;;;12.60;8.07;;;2.50;99.90;;;;;;4191295;28;20450;-69
2021/01/15 03:25:13;;;;;;;13.07;7.60;;;2.50;99.90;;;;;;4172380;28;20040;-69
2021/01/15 03:27:14;;;;;;;15.52;8.32;;;2.50;99.90;;;;;;4190126;28;20036;-68
2021/01/15 03:29:14;;;;;;;12.85;8.60;;;2.50;99.90;;;;;;4189000;28;20528;-68
2021/01/15 03:31:15;;;;;;;15.00;8.75;;;2.50;99.90;;;;;;4200557;28;20032;-68
2021/01/15 03:33:15;;;;;;;17.80;9.95;;;2.50;99.90;;;;;;4190184;28;20032;-69
2021/01/15 03:35:22;;;;;;;16.15;8.82;;;2.50;99.90;;;;;;4198933;28;20112;-68
2021/01/15 03:37:23;;;;;;;14.52;9.27;;;2.50;99.90;;;;;;4195723;28;20135;-69
2021/01/15 03:39:24;;;;;;;13.75;8.90;;;2.60;99.90;;;;;;4205192;28;20500;-68
2021/01/15 03:41:24;;;;;;;16.25;9.27;;;2.50;99.90;;;;;;4190911;28;20044;-68
2021/01/15 03:43:25;;;;;;;15.05;8.60;;;2.60;99.90;;;;;;4189285;28;20040;-68
2021/01/15 03:45:27;;;;;;;14.77;8.55;;;2.60;99.90;;;;;;4188848;28;20069;-69
2021/01/15 03:47:30;;;;;;;13.07;8.30;;;2.60;99.90;;;;;;4191314;28;20029;-68
2021/01/15 03:49:31;;;;;;;15.40;8.98;;;2.60;99.90;;;;;;4194921;28;20039;-68
2021/01/15 03:51:32;;;;;;;14.73;9.32;;;2.60;99.90;;;;;;4206432;28;20126;-68
2021/01/15 03:53:32;;;;;;;14.43;8.50;;;2.60;99.90;;;;;;4191014;28;20032;-69
2021/01/15 03:55:33;;;;;;;15.35;9.13;;;2.60;99.90;;;;;;4189615;28;20340;-69
2021/01/15 03:57:34;;;;;;;13.60;9.13;;;2.60;99.90;;;;;;4198362;28;20028;-69
2021/01/15 03:59:35;;;;;;;13.57;9.02;;;2.60;99.90;;;;;;4191016;28;20047;-68
2021/01/15 04:01:36;;;;;;;16.73;8.85;;;2.60;99.90;;;;;;4172489;28;20516;-68
2021/01/15 04:03:37;;;;;;;18.17;9.68;;;2.60;99.90;;;;;;4199080;28;20112;-69
2021/01/15 04:05:38;;;;;;;16.98;8.77;;;2.60;99.90;;;;;;4178068;28;20071;-69
2021/01/15 04:07:38;;;;;;;15.90;9.30;;;2.60;99.90;;;;;;4191164;28;20303;-68
2021/01/15 04:09:39;;;;;;;14.85;8.93;;;2.70;99.90;;;;;;4190920;28;20068;-68
2021/01/15 04:11:40;;;;;;;14.63;8.95;;;2.70;99.90;;;;;;4189959;28;20468;-68
2021/01/15 04:13:41;;;;;;;18.00;9.57;;;2.70;99.90;;;;;;4198810;28;20112;-68
2021/01/15 04:15:42;;;;;;;15.32;9.07;;;2.70;99.90;;;;;;4189707;28;20041;-68
2021/01/15 04:17:44;;;;;;;20.10;9.95;;;2.70;99.90;;;;;;4189396;28;20049;-68
2021/01/15 04:19:44;;;;;;;15.60;9.63;;;2.70;99.90;;;;;;4194342;28;20037;-68
2021/01/15 04:21:45;;;;;;;14.98;8.90;;;2.70;99.90;;;;;;4199113;28;20043;-68
2021/01/15 04:23:45;;;;;;;14.18;8.77;;;2.70;99.90;;;;;;4192990;28;20044;-68
2021/01/15 04:25:46;;;;;;;13.82;9.23;;;2.70;99.90;;;;;;4204986;28;20480;-68
2021/01/15 04:27:46;;;;;;;13.90;9.00;;;2.70;99.90;;;;;;4197802;28;20065;-68
2021/01/15 04:29:47;;;;;;;15.10;9.93;;;2.70;99.90;;;;;;4192237;28;20119;-69
2021/01/15 04:31:48;;;;;;;14.68;9.75;;;2.60;99.90;;;;;;4195152;28;20051;-68
2021/01/15 04:33:49;;;;;;;14.25;9.23;;;2.70;99.90;;;;;;4194475;28;20502;-68
2021/01/15 04:35:49;;;;;;;18.05;10.50;;;2.70;99.90;;;;;;4192628;28;20094;-68
2021/01/15 04:37:50;;;;;;;17.15;10.30;;;2.70;99.90;;;;;;4196068;28;20056;-68
2021/01/15 04:39:51;;;;;;;16.40;9.70;;;2.70;99.90;;;;;;4192737;28;20033;-68
2021/01/15 04:41:53;;;;;;;17.63;9.75;;;2.70;99.90;;;;;;4194015;28;20045;-68
2021/01/15 04:43:55;;;;;;;19.55;11.27;;;2.70;99.90;;;;;;4199768;28;20037;-68
2021/01/15 04:45:56;;;;;;;16.08;9.98;;;2.70;99.90;;;;;;4193653;28;20115;-68
2021/01/15 04:47:58;;;;;;;12.90;9.23;;;2.70;99.90;;;;;;4194813;28;20106;-68
2021/01/15 04:50:00;;;;;;;15.55;10.25;;;2.70;99.90;;;;;;4196698;28;20040;-68
2021/01/15 04:52:03;;;;;;;16.77;10.30;;;2.70;99.90;;;;;;4194845;28;20039;-69
2021/01/15 04:54:07;;;;;;;16.10;9.70;;;2.70;99.90;;;;;;4198466;28;20135;-68
2021/01/15 04:56:11;;;;;;;18.27;11.07;;;2.70;99.90;;;;;;4196378;28;20377;-68
2021/01/15 04:58:15;;;;;;;16.88;10.50;;;2.70;99.90;;;;;;4200402;28;20143;-68
2021/01/15 05:00:18;;;;;;;16.55;10.43;;;2.70;99.90;;;;;;4193912;28;20457;-68
2021/01/15 05:02:27;;;;;;;16.40;10.85;;;2.70;99.90;;;;;;4193346;28;20044;-68
2021/01/15 05:04:30;;;;;;;15.18;9.75;;;2.70;99.90;;;;;;4201422;28;20036;-68
2021/01/15 05:06:52;;;;;;;14.80;9.52;;;2.70;99.90;;;;;;4191957;28;20055;-68
2021/01/15 05:09:00;;;;;;;17.33;10.70;;;2.70;99.90;;;;;;4188821;28;20056;-68
2021/01/15 05:11:02;;;;;;;17.70;10.98;;;2.70;99.90;;;;;;4192087;28;20028;-68
2021/01/15 05:13:07;;;;;;;16.77;10.50;;;2.70;99.90;;;;;;4228800;27;20570;-68
2021/01/15 05:15:10;;;;;;;18.70;10.77;;;2.70;99.90;;;;;;4217090;27;20036;-68
2021/01/15 05:17:11;;;;;;;18.40;11.20;;;2.70;99.90;;;;;;4220307;27;20035;-68
2021/01/15 05:19:12;;;;;;;20.50;12.02;;;2.60;99.90;;;;;;4196650;28;20067;-68
2021/01/15 05:21:13;;;;;;;18.55;11.50;;;2.60;99.90;;;;;;4196293;28;20040;-68
2021/01/15 05:23:15;;;;;;;18.65;11.80;;;2.60;99.90;;;;;;4196168;28;20431;-68
2021/01/15 05:25:16;;;;;;;21.40;12.13;;;2.60;99.90;;;;;;4199688;28;20044;-68
2021/01/15 05:29:35;;;;;;;18.63;11.38;;;2.50;99.90;;;;;;4195490;28;20086;-68
2021/01/15 05:31:56;;;;;;;19.33;12.50;;;2.60;99.90;;;;;;4192527;28;20032;-68
2021/01/15 05:34:07;;;;;;;20.17;12.45;;;2.60;99.90;;;;;;4198912;28;20041;-69
2021/01/15 05:36:08;;;;;;;20.25;11.23;;;2.60;99.90;;;;;;4190462;28;20067;-68
2021/01/15 05:38:11;;;;;;;18.15;11.25;;;2.60;99.90;;;;;;4196365;28;20032;-68
2021/01/15 05:40:14;;;;;;;20.42;12.07;;;2.60;99.90;;;;;;4199511;28;20037;-68
2021/01/15 05:42:17;;;;;;;20.90;12.55;;;2.60;99.90;;;;;;4189082;28;20044;-68
2021/01/15 05:44:28;;;;;;;17.95;11.82;;;2.60;99.90;;;;;;4177948;28;20727;-68
2021/01/15 05:46:29;;;;;;;19.10;11.27;;;2.60;99.90;;;;;;4183003;28;20475;-69
2021/01/15 05:48:29;;;;;;;16.40;11.23;;;2.60;99.90;;;;;;4191281;28;20072;-68
2021/01/15 05:50:39;;;;;;;18.65;11.90;;;2.60;99.90;;;;;;4201897;28;20040;-68
2021/01/15 05:52:56;;;;;;;19.65;11.45;;;2.60;99.90;;;;;;4190894;28;20111;-68
2021/01/15 05:54:57;;;;;;;20.00;11.85;;;2.60;99.90;;;;;;4201520;28;20348;-68
2021/01/15 05:56:59;;;;;;;21.25;12.45;;;2.60;99.90;;;;;;4191982;28;20032;-68
2021/01/15 05:59:04;;;;;;;20.38;12.68;;;2.60;99.90;;;;;;4203513;28;20032;-68
2021/01/15 06:01:05;;;;;;;18.45;11.52;;;2.60;99.90;;;;;;4203227;28;20440;-68
2021/01/15 06:03:07;;;;;;;19.17;11.55;;;2.60;99.90;;;;;;4195882;28;20070;-68
2021/01/15 06:05:16;;;;;;;20.20;11.70;;;2.60;99.90;;;;;;4208399;28;20026;-68
2021/01/15 06:07:18;;;;;;;21.00;13.48;;;2.60;99.90;;;;;;4193957;28;20028;-68
2021/01/15 06:09:21;;;;;;;22.27;13.63;;;2.60;99.90;;;;;;4196220;28;20493;-68
2021/01/15 06:11:22;;;;;;;21.90;12.95;;;2.60;99.90;;;;;;4192180;28;20503;-68
2021/01/15 06:13:37;;;;;;;22.35;12.80;;;2.60;99.90;;;;;;4184504;28;20044;-68
2021/01/15 06:15:47;;;;;;;19.98;12.73;;;2.60;99.90;;;;;;4185779;28;20032;-68
2021/01/15 06:17:52;;;;;;;20.05;13.15;;;2.60;99.90;;;;;;4184568;28;20422;-68
2021/01/15 06:19:59;;;;;;;19.52;12.25;;;2.70;99.90;;;;;;4177677;28;20091;-69
2021/01/15 06:22:02;;;;;;;18.85;12.23;;;2.70;99.90;;;;;;4170701;28;20067;-69
2021/01/15 06:24:08;;;;;;;24.27;13.93;;;2.70;99.90;;;;;;4170945;28;20132;-68
2021/01/15 06:26:09;;;;;;;20.73;12.88;;;2.70;99.90;;;;;;4174768;28;20600;-68
2021/01/15 06:28:19;;;;;;;20.48;12.70;;;2.70;99.90;;;;;;4171852;28;20394;-68
2021/01/15 06:30:25;;;;;;;20.60;12.60;;;2.70;99.90;;;;;;4190060;28;20036;-68
2021/01/15 06:32:26;;;;;;;20.60;12.43;;;2.70;99.90;;;;;;4193448;28;20396;-68
2021/01/15 06:34:29;;;;;;;21.17;14.13;;;2.70;99.90;;;;;;4191946;28;20044;-68
2021/01/15 06:36:50;;;;;;;23.15;13.60;;;2.70;99.90;;;;;;4164203;28;20109;-69
2021/01/15 06:39:08;;;;;;;21.77;12.90;;;2.60;99.90;;;;;;4168428;28;20039;-68
2021/01/15 06:41:17;;;;;;;19.65;12.57;;;2.60;99.90;;;;;;4192269;28;20674;-68
2021/01/15 06:43:32;;;;;;;22.83;13.10;;;2.70;99.90;;;;;;4190346;28;20045;-68
2021/01/15 06:45:42;;;;;;;19.00;12.93;;;2.60;99.90;;;;;;4180695;28;20040;-68
2021/01/15 06:47:45;;;;;;;21.83;13.48;;;2.60;99.90;;;;;;4175509;28;20301;-68
2021/01/15 06:49:49;;;;;;;20.48;13.60;;;2.60;99.90;;;;;;4174883;28;20112;-69
2021/01/15 06:51:55;;;;;;;21.42;12.52;;;2.60;99.90;;;;;;4167624;28;20077;-68
2021/01/15 06:54:04;;;;;;;21.17;13.07;;;2.70;99.90;;;;;;4176028;28;20385;-68
2021/01/15 06:56:07;;;;;;;19.45;12.13;;;2.60;99.90;;;;;;4180404;28;20028;-69
2021/01/15 06:58:17;;;;;;;22.30;13.02;;;2.60;99.90;;;;;;4174885;28;20082;-68
2021/01/15 07:00:23;;;;;;;22.27;13.15;;;2.70;99.90;;;;;;4177082;28;20048;-68
2021/01/15 07:02:32;;;;;;;24.15;14.40;;;2.70;99.90;;;;;;4188394;28;20044;-68
2021/01/15 07:04:44;;;;;;;19.98;12.88;;;2.70;99.90;;;;;;4171239;28;20439;-68
2021/01/15 07:07:13;;;;;;;21.42;13.55;;;2.70;99.90;;;;;;4158347;28;20064;-68
2021/01/15 07:09:14;;;;;;;20.40;12.65;;;2.70;99.90;;;;;;4172400;28;20392;-68
2021/01/15 07:11:20;;;;;;;21.58;13.00;;;2.70;99.90;;;;;;4174322;28;20481;-68
2021/01/15 07:13:26;;;;;;;20.75;12.32;;;2.70;99.90;;;;;;4174755;28;20037;-68
2021/01/15 07:15:35;;;;;;;18.13;11.88;;;2.80;99.90;;;;;;4182489;28;20435;-68
2021/01/15 07:17:38;;;;;;;19.92;13.02;;;2.80;99.90;;;;;;4177870;28;20052;-68
2021/01/15 07:19:42;;;;;;;20.80;13.40;;;2.70;99.90;;;;;;4189452;28;20044;-68
2021/01/15 07:22:03;;;;;;;23.98;14.25;;;2.70;99.90;;;;;;4187105;28;20033;-68
2021/01/15 07:24:10;;;;;;;20.85;13.38;;;2.70;99.90;;;;;;4167297;28;20037;-68
2021/01/15 07:26:13;;;;;;;22.05;13.68;;;2.80;99.90;;;;;;4191135;28;20090;-68
2021/01/15 07:28:15;;;;;;;22.85;13.88;;;2.80;99.90;;;;;;4194578;28;20553;-68
2021/01/15 07:30:21;;;;;;;20.60;13.43;;;2.80;99.90;;;;;;4197021;28;20054;-69
2021/01/15 07:32:26;;;;;;;21.48;13.43;;;2.80;99.90;;;;;;4197829;28;20551;-70
2021/01/15 07:34:27;;;;;;;24.63;13.88;;;2.80;99.90;;;;;;4186461;28;20531;-69
2021/01/15 07:36:36;;;;;;;21.53;13.33;;;2.80;99.90;;;;;;4181793;28;20549;-69
2021/01/15 07:38:37;;;;;;;19.20;12.77;;;2.80;99.90;;;;;;4191223;28;20414;-69
2021/01/15 07:40:38;;;;;;;22.20;12.52;;;2.80;99.90;;;;;;4191334;28;20047;-69
2021/01/15 07:42:49;;;;;;;21.33;14.13;;;2.80;99.90;;;;;;4194828;28;20041;-69
2021/01/15 07:44:49;;;;;;;21.83;13.30;;;2.80;99.90;;;;;;4193729;28;20377;-69
2021/01/15 07:46:56;;;;;;;23.63;14.13;;;2.80;99.90;;;;;;4184166;28;20108;-69
2021/01/15 07:49:00;;;;;;;27.77;15.07;;;2.80;99.90;;;;;;4173989;28;20543;-69
2021/01/15 07:51:11;;;;;;;21.88;13.63;;;2.80;99.90;;;;;;4174485;28;20041;-69
2021/01/15 07:53:16;;;;;;;32.35;16.92;;;2.80;99.90;;;;;;4194705;28;20511;-69
2021/01/15 07:55:17;;;;;;;30.48;17.38;;;2.70;99.90;;;;;;4172566;28;20037;-69
2021/01/15 07:57:18;;;;;;;28.55;15.77;;;2.70;99.90;;;;;;4160280;28;20196;-69
2021/01/15 07:59:29;;;;;;;26.02;16.30;;;2.80;99.90;;;;;;4172221;28;20036;-69
2021/01/15 08:01:29;;;;;;;23.65;14.55;;;2.70;99.90;;;;;;4160274;28;20034;-69
2021/01/15 08:03:33;;;;;;;24.00;14.65;;;2.70;99.90;;;;;;4180191;28;20048;-69
2021/01/15 08:05:34;;;;;;;29.65;16.65;;;2.70;99.90;;;;;;4202953;28;20037;-69
2021/01/15 08:07:35;;;;;;;26.83;14.95;;;2.70;99.90;;;;;;4192930;28;20043;-69
2021/01/15 08:09:42;;;;;;;26.27;15.60;;;2.70;99.90;;;;;;4194112;28;20032;-69
2021/01/15 08:11:56;;;;;;;24.85;14.90;;;2.70;99.90;;;;;;4193574;28;20043;-69
2021/01/15 08:14:13;;;;;;;24.80;15.18;;;2.70;99.90;;;;;;4198030;28;20040;-69
2021/01/15 08:16:14;;;;;;;24.67;14.77;;;2.70;99.90;;;;;;4192081;28;20093;-68
2021/01/15 08:18:15;;;;;;;25.10;15.15;;;2.70;99.90;;;;;;4203639;28;20032;-69
2021/01/15 08:20:16;;;;;;;20.90;13.52;;;2.70;99.90;;;;;;4202234;28;20499;-69
2021/01/15 08:22:17;;;;;;;21.80;14.00;;;2.80;99.90;;;;;;4194864;28;20037;-69
2021/01/15 08:24:18;;;;;;;24.60;14.95;;;2.80;99.90;;;;;;4192976;28;20123;-69
2021/01/15 08:26:30;;;;;;;26.23;15.40;;;2.80;99.90;;;;;;4194853;28;20110;-69
2021/01/15 08:28:33;;;;;;;23.05;14.02;;;2.80;99.90;;;;;;4180798;28;20083;-69
2021/01/15 08:30:33;;;;;;;24.92;14.52;;;2.80;99.90;;;;;;4185537;27;20041;-69
2021/01/15 08:32:40;;;;;;;25.20;15.38;;;2.80;99.90;;;;;;4183471;28;20060;-69
2021/01/15 08:34:41;;;;;;;24.95;15.48;;;2.80;99.90;;;;;;4178144;28;20033;-69
2021/01/15 08:36:47;;;;;;;24.75;14.38;;;2.80;99.90;;;;;;4184892;28;20067;-69
2021/01/15 08:38:57;;;;;;;25.42;15.15;;;2.80;99.90;;;;;;4186912;28;20124;-69
2021/01/15 08:40:59;;;;;;;29.10;16.23;;;2.80;99.90;;;;;;4181937;28;20385;-69
2021/01/15 08:43:00;;;;;;;26.55;16.20;;;2.80;99.90;;;;;;4181203;28;20047;-69
2021/01/15 08:45:02;;;;;;;29.13;16.58;;;2.80;99.90;;;;;;4179600;28;20563;-69
2021/01/15 08:47:04;;;;;;;24.08;15.57;;;2.80;99.90;;;;;;4181679;28;20105;-69
2021/01/15 08:49:09;;;;;;;26.63;15.57;;;2.80;99.90;;;;;;4179714;28;20040;-69
2021/01/15 08:51:11;;;;;;;26.20;16.52;;;2.80;99.90;;;;;;4185833;28;20021;-69
2021/01/15 08:53:16;;;;;;;26.27;15.82;;;2.80;99.90;;;;;;4188735;28;20032;-69
2021/01/15 08:55:19;;;;;;;24.77;14.82;;;2.80;99.90;;;;;;4196625;28;20550;-69
2021/01/15 08:57:20;;;;;;;25.10;15.75;;;2.80;99.90;;;;;;4204256;28;20036;-69
2021/01/15 08:59:26;;;;;;;26.13;16.23;;;2.80;99.90;;;;;;4202276;28;20650;-69
2021/01/15 09:01:29;;;;;;;26.40;16.10;;;2.80;99.90;;;;;;4184857;28;20064;-69
2021/01/15 09:03:30;;;;;;;26.63;15.65;;;2.80;99.90;;;;;;4193456;28;20037;-69
2021/01/15 09:05:32;;;;;;;26.02;15.73;;;2.80;99.90;;;;;;4193014;28;20048;-69
2021/01/15 09:07:44;;;;;;;29.05;17.25;;;2.80;99.90;;;;;;4195857;28;20037;-69
2021/01/15 09:09:45;;;;;;;23.48;15.57;;;2.80;99.90;;;;;;4193271;28;20103;-69
2021/01/15 09:11:48;;;;;;;27.00;16.40;;;2.80;99.90;;;;;;4196474;28;20420;-69
2021/01/15 09:13:49;;;;;;;24.73;15.55;;;2.80;99.90;;;;;;4192611;28;20048;-69
2021/01/15 09:15:51;;;;;;;26.45;16.08;;;2.80;99.90;;;;;;4189616;28;20040;-69
2021/01/15 09:17:52;;;;;;;25.17;15.27;;;2.80;99.90;;;;;;4193065;28;20072;-69
2021/01/15 09:19:53;;;;;;;27.58;15.75;;;2.80;99.90;;;;;;4196198;28;20119;-69
2021/01/15 09:22:20;;;;;;;30.25;17.55;;;2.80;99.90;;;;;;4194839;28;20467;-69
2021/01/15 09:24:21;;;;;;;26.95;16.70;;;2.80;99.90;;;;;;4203480;28;20059;-69
2021/01/15 09:26:22;;;;;;;32.10;18.07;;;2.80;99.90;;;;;;4177156;28;20037;-69
2021/01/15 09:28:22;;;;;;;28.08;16.80;;;2.90;99.90;;;;;;4188301;28;20380;-69
2021/01/15 09:30:23;;;;;;;24.42;15.50;;;2.80;99.90;;;;;;4186486;28;20101;-69
2021/01/15 09:32:24;;;;;;;32.10;18.20;;;2.80;99.90;;;;;;4183297;28;20495;-69
2021/01/15 09:34:26;;;;;;;30.80;17.23;;;2.90;99.90;;;;;;4182202;28;20037;-69
2021/01/15 09:36:27;;;;;;;32.67;17.53;;;2.90;99.90;;;;;;4176320;28;20060;-69
2021/01/15 09:38:27;;;;;;;27.02;16.05;;;2.90;99.90;;;;;;4161623;28;20633;-69
2021/01/15 09:40:28;;;;;;;30.63;16.67;;;2.90;99.90;;;;;;4177886;28;20044;-69
2021/01/15 09:42:28;;;;;;;29.92;17.83;;;2.90;99.90;;;;;;4169575;28;20473;-68
2021/01/15 09:44:30;;;;;;;29.38;17.63;;;2.90;99.90;;;;;;4174691;28;20045;-65
2021/01/15 09:46:31;;;;;;;31.85;17.85;;;2.90;99.90;;;;;;4175886;28;20053;-65
2021/01/15 09:48:31;;;;;;;30.52;17.75;;;2.90;99.90;;;;;;4181364;28;20035;-66
2021/01/15 09:50:32;;;;;;;28.45;16.83;;;2.90;99.90;;;;;;4190137;28;20127;-65
2021/01/15 09:52:33;;;;;;;28.17;16.77;;;2.90;99.90;;;;;;4186075;28;20405;-65
2021/01/15 09:54:34;;;;;;;29.10;18.73;;;3.00;99.90;;;;;;4191529;28;20047;-65
2021/01/15 09:56:47;;;;;;;28.92;17.48;;;2.90;99.90;;;;;;4191129;28;20303;-65
2021/01/15 09:58:48;;;;;;;31.02;18.67;;;2.90;99.90;;;;;;4194088;28;20051;-65
2021/01/15 10:00:48;;;;;;;30.15;17.67;;;2.90;99.90;;;;;;4195636;28;20487;-65
2021/01/15 10:02:49;;;;;;;30.17;18.17;;;2.90;99.90;;;;;;4196467;28;20131;-65
2021/01/15 10:04:50;;;;;;;29.15;17.33;;;2.90;99.90;;;;;;4198262;28;20039;-65
2021/01/15 10:06:51;;;;;;;28.48;16.90;;;2.90;99.90;;;;;;4184087;28;20040;-65
2021/01/15 10:08:51;;;;;;;28.90;16.45;;;3.00;99.90;;;;;;4192311;28;20040;-66
2021/01/15 10:10:52;;;;;;;29.20;17.20;;;3.00;99.90;;;;;;4193632;28;20029;-65
2021/01/15 10:12:52;;;;;;;26.70;16.45;;;3.00;99.90;;;;;;4194211;28;20098;-65
2021/01/15 10:14:53;;;;;;;31.58;17.48;;;3.00;99.90;;;;;;4195482;28;20040;-65
2021/01/15 10:16:53;;;;;;;27.08;16.48;;;3.00;99.90;;;;;;4198202;28;20044;-65
2021/01/15 10:18:55;;;;;;;26.90;16.75;;;3.00;99.90;;;;;;4197751;28;20363;-65
2021/01/15 10:20:56;;;;;;;30.67;17.42;;;3.10;99.90;;;;;;4193093;28;20097;-65
2021/01/15 10:22:56;;;;;;;30.30;18.23;;;3.10;99.90;;;;;;4200687;28;20036;-65
2021/01/15 10:24:57;;;;;;;30.30;18.10;;;3.10;99.90;;;;;;4195407;28;20503;-65
2021/01/15 10:26:57;;;;;;;33.33;19.40;;;3.10;99.90;;;;;;4192311;28;20032;-66
2021/01/15 10:29:06;;;;;;;27.88;17.08;;;3.10;99.90;;;;;;4193434;28;20562;-65
2021/01/15 10:31:09;;;;;;;31.80;18.38;;;3.10;99.90;;;;;;4176956;28;20086;-65
2021/01/15 10:33:09;;;;;;;30.90;18.20;;;3.10;99.90;;;;;;4182845;28;20035;-65
2021/01/15 10:35:10;;;;;;;33.25;18.23;;;3.10;99.90;;;;;;4184441;28;20020;-65
2021/01/15 10:37:11;;;;;;;28.10;17.38;;;3.10;99.90;;;;;;4183934;28;20545;-65
2021/01/15 10:39:12;;;;;;;24.70;16.00;;;3.20;99.90;;;;;;4183645;28;20028;-65
2021/01/15 10:41:13;;;;;;;31.45;18.40;;;3.10;99.90;;;;;;4179697;28;20036;-65
2021/01/15 10:43:14;;;;;;;29.05;17.00;;;3.10;99.90;;;;;;4182770;28;20350;-65
2021/01/15 10:45:15;;;;;;;29.95;17.70;;;3.10;99.90;;;;;;4172764;28;20035;-65